Terminal Aerodrome Forecast
Issued by NWS

Home | Current Version | Previous Version | Text Only | Print | Product List | Glossary On
Versions: 1 2 3 4 5 6 7 8 9 10 11 12 13 14 15 16
000
FTUS44 KLUB 212300
TAFCDS
TAF
KCDS 212320Z 2200/2224 13005KT P6SM FEW020 SCT250
     FM220500 16006KT 5SM BR OVC006
     FM220900 17005KT 2SM -TSRA BR OVC005CB
     FM221400 18007KT 4SM BR OVC008
     FM221900 17008KT P6SM SCT015 SCT120 BKN200=

USA.gov is the U.S. government's official web portal to all federal, state and local government web resources and services.